createdAt,value
2022-10-04T00:01:59.337Z,78.02
2022-10-04T00:04:28.628Z,77.78
2022-10-04T00:06:59.729Z,77.63
2022-10-04T00:09:33.376Z,77.69
2022-10-04T00:12:01.837Z,78.04
2022-10-04T00:14:31.495Z,77.87
2022-10-04T00:16:59.940Z,78.03
2022-10-04T00:19:40.781Z,78.11
2022-10-04T00:22:26.139Z,78.12
2022-10-04T00:25:22.790Z,78.15
2022-10-04T00:28:30.061Z,78.32
2022-10-04T00:31:23.349Z,78.47
2022-10-04T00:33:53.732Z,78.37
2022-10-04T00:36:49.449Z,78.38
2022-10-04T00:39:27.173Z,78.71
2022-10-04T00:42:12.807Z,78.50
2022-10-04T00:44:45.628Z,78.27
2022-10-04T00:47:23.957Z,78.60
2022-10-04T00:49:57.090Z,78.63
2022-10-04T00:52:27.723Z,78.73
2022-10-04T00:54:58.595Z,78.15
2022-10-04T00:57:29.816Z,78.42
2022-10-04T00:59:59.765Z,78.35
2022-10-04T01:02:30.726Z,78.59
2022-10-04T01:05:00.656Z,78.72
2022-10-04T01:07:30.394Z,78.34
2022-10-04T01:10:01.422Z,78.36
2022-10-04T01:12:44.706Z,78.32
2022-10-04T01:15:16.106Z,78.42
2022-10-04T01:18:09.288Z,78.80
2022-10-04T01:20:39.450Z,78.62
2022-10-04T01:23:10.603Z,78.27
2022-10-04T01:25:47.442Z,78.15
2022-10-04T01:28:15.423Z,77.89
2022-10-04T01:30:43.565Z,78.14
2022-10-04T01:33:13.389Z,77.89
2022-10-04T01:35:41.327Z,78.18
2022-10-04T01:38:10.405Z,78.12
2022-10-04T01:40:43.929Z,78.50
2022-10-04T01:43:13.714Z,78.11
2022-10-04T01:45:45.309Z,78.12
2022-10-04T01:48:16.099Z,77.77
2022-10-04T01:50:45.902Z,77.71
2022-10-04T01:53:20.973Z,78.13
2022-10-04T01:55:51.431Z,78.37
2022-10-04T01:58:21.821Z,78.23
2022-10-04T02:00:54.600Z,78.12
2022-10-04T02:03:25.389Z,78.35
2022-10-04T02:05:55.465Z,78.43
2022-10-04T02:08:30.722Z,78.39
2022-10-04T02:10:58.848Z,78.22
2022-10-04T02:13:29.461Z,78.33
2022-10-04T02:15:57.420Z,77.96
2022-10-04T02:18:25.584Z,77.79
2022-10-04T02:20:53.531Z,77.94
2022-10-04T02:23:21.811Z,77.79
2022-10-04T02:25:51.061Z,78.07
2022-10-04T02:28:19.252Z,78.01
2022-10-04T02:31:09.362Z,77.70
2022-10-04T02:33:40.264Z,77.56
2022-10-04T02:36:09.407Z,77.69
2022-10-04T02:38:39.062Z,77.54
2022-10-04T02:41:13.710Z,77.38
2022-10-04T02:43:47.271Z,78.03
2022-10-04T02:46:16.838Z,77.76
2022-10-04T02:48:48.397Z,77.51
2022-10-04T02:51:20.959Z,77.55
2022-10-04T02:53:54.702Z,77.85
2022-10-04T02:56:25.953Z,77.57
2022-10-04T02:58:54.309Z,77.44
2022-10-04T03:01:29.509Z,77.30
2022-10-04T03:03:58.496Z,76.77
2022-10-04T03:06:32.383Z,77.15
2022-10-04T03:09:02.437Z,76.64
2022-10-04T03:11:35.377Z,76.45
2022-10-04T03:14:05.261Z,75.97
2022-10-04T03:16:36.249Z,75.78
2022-10-04T03:19:04.286Z,76.60
2022-10-04T03:21:33.078Z,76.65
2022-10-04T03:24:01.840Z,76.70
2022-10-04T03:26:37.199Z,77.29
2022-10-04T03:29:09.501Z,77.11
2022-10-04T03:31:40.900Z,77.19
2022-10-04T03:34:15.042Z,77.58
2022-10-04T03:36:42.913Z,77.27
2022-10-04T03:39:12.217Z,77.49
2022-10-04T03:41:42.327Z,77.10
2022-10-04T03:44:16.277Z,77.53
2022-10-04T03:46:45.362Z,77.30
2022-10-04T03:49:13.959Z,77.21
2022-10-04T03:51:45.406Z,77.22
2022-10-04T03:54:17.921Z,77.35
2022-10-04T03:56:47.005Z,77.55
2022-10-04T03:59:17.866Z,77.56
2022-10-04T04:01:48.100Z,77.07
2022-10-04T04:04:20.465Z,77.55
2022-10-04T04:06:53.618Z,76.92
2022-10-04T04:09:25.261Z,77.48
2022-10-04T04:11:56.097Z,77.24
2022-10-04T04:14:26.216Z,77.31
2022-10-04T04:16:54.548Z,77.41
2022-10-04T04:19:24.795Z,77.27
2022-10-04T04:21:54.784Z,76.95
2022-10-04T04:24:26.232Z,76.72
2022-10-04T04:26:59.447Z,76.81
2022-10-04T04:29:32.265Z,77.06
2022-10-04T04:32:02.440Z,77.00
2022-10-04T04:34:33.162Z,76.91
2022-10-04T04:37:01.860Z,77.38
2022-10-04T04:39:37.488Z,76.83
2022-10-04T04:42:12.925Z,76.15
2022-10-04T04:44:48.207Z,76.58
2022-10-04T04:47:26.954Z,76.70
2022-10-04T04:49:55.113Z,76.47
2022-10-04T04:52:27.039Z,75.99
2022-10-04T04:54:55.826Z,76.17
2022-10-04T04:57:25.008Z,75.90
2022-10-04T04:59:57.089Z,76.38
2022-10-04T05:02:33.120Z,75.92
2022-10-04T05:05:17.861Z,75.72
2022-10-04T05:07:45.711Z,75.60
2022-10-04T05:10:30.463Z,75.37
2022-10-04T05:13:00.903Z,74.98
2022-10-04T05:15:29.799Z,75.19
2022-10-04T05:17:57.456Z,75.47
2022-10-04T05:20:26.292Z,75.71
2022-10-04T05:22:55.060Z,75.50
2022-10-04T05:25:27.998Z,75.07
2022-10-04T05:27:56.739Z,74.67
2022-10-04T05:30:39.038Z,74.72
2022-10-04T05:33:08.830Z,74.92
2022-10-04T05:35:45.089Z,74.89
2022-10-04T05:38:16.752Z,74.87
2022-10-04T05:40:49.174Z,75.45
2022-10-04T05:43:27.628Z,74.86
2022-10-04T05:46:19.593Z,74.83
2022-10-04T05:48:48.489Z,74.62
2022-10-04T05:51:20.661Z,74.88
2022-10-04T05:53:49.899Z,75.27
2022-10-04T05:56:41.187Z,75.63
2022-10-04T05:59:16.880Z,75.22
2022-10-04T06:01:51.744Z,75.41
2022-10-04T06:04:48.437Z,75.61
2022-10-04T06:07:23.290Z,75.62
2022-10-04T06:10:07.108Z,75.50
2022-10-04T06:12:44.661Z,75.44
2022-10-04T06:15:32.809Z,75.57
2022-10-04T06:18:22.810Z,75.45
2022-10-04T06:21:21.441Z,75.68
2022-10-04T06:23:54.321Z,75.64
2022-10-04T06:26:25.051Z,75.83
2022-10-04T06:28:57.021Z,76.14
2022-10-04T06:31:49.584Z,75.93
2022-10-04T06:34:49.688Z,76.20
2022-10-04T06:37:29.507Z,76.37
2022-10-04T06:40:20.060Z,76.25
2022-10-04T06:42:59.569Z,76.27
2022-10-04T06:45:36.631Z,76.59
2022-10-04T06:48:20.242Z,76.46
2022-10-04T06:50:51.711Z,76.56
2022-10-04T06:53:27.668Z,76.96
2022-10-04T06:56:20.580Z,77.41
2022-10-04T06:59:13.714Z,77.17
2022-10-04T07:01:49.911Z,77.33
2022-10-04T07:04:26.553Z,77.42
2022-10-04T07:07:24.781Z,77.89
2022-10-04T07:09:55.622Z,77.98
2022-10-04T07:12:23.946Z,78.22
2022-10-04T07:14:53.975Z,78.20
2022-10-04T07:17:25.513Z,77.97
2022-10-04T07:19:53.733Z,78.00
2022-10-04T07:22:28.594Z,78.59
2022-10-04T07:25:06.594Z,78.33
2022-10-04T07:27:36.394Z,78.73
2022-10-04T07:30:06.838Z,78.86
2022-10-04T07:32:38.822Z,78.72
2022-10-04T07:35:16.808Z,79.05
2022-10-04T07:37:51.371Z,79.21
2022-10-04T07:40:24.078Z,79.06
2022-10-04T07:42:54.960Z,79.13
2022-10-04T07:45:29.148Z,79.39
2022-10-04T07:48:05.451Z,79.07
2022-10-04T07:50:37.903Z,78.94
2022-10-04T07:53:10.921Z,78.39
2022-10-04T07:55:49.245Z,78.00
2022-10-04T07:58:24.667Z,78.37
2022-10-04T08:00:56.473Z,77.95
2022-10-04T08:03:58.290Z,78.73
2022-10-04T08:06:34.038Z,77.81
2022-10-04T08:09:24.939Z,77.62
2022-10-04T08:12:01.664Z,78.09
2022-10-04T08:14:41.104Z,78.07
2022-10-04T08:17:18.574Z,78.02
2022-10-04T08:19:54.428Z,76.96
2022-10-04T08:22:35.058Z,76.36
2022-10-04T08:25:09.658Z,76.54
2022-10-04T08:28:13.748Z,75.96
2022-10-04T08:30:56.352Z,76.07
2022-10-04T08:33:32.141Z,76.69
2022-10-04T08:38:51.602Z,77.94
2022-10-04T08:42:01.859Z,77.98
2022-10-04T08:44:56.817Z,76.81
2022-10-04T08:48:00.360Z,77.59
2022-10-04T08:52:25.487Z,76.24
2022-10-04T08:55:34.965Z,76.11
2022-10-04T08:58:14.182Z,75.29
2022-10-04T09:00:55.864Z,74.55
2022-10-04T09:04:01.746Z,75.15
2022-10-04T09:06:41.882Z,74.96
2022-10-04T09:09:53.765Z,75.49
2022-10-04T09:12:49.351Z,75.10
2022-10-04T09:15:27.404Z,75.23
2022-10-04T09:17:56.478Z,75.62
2022-10-04T09:20:38.935Z,76.20
2022-10-04T09:23:13.744Z,74.91
2022-10-04T09:25:49.981Z,75.40
2022-10-04T09:28:40.578Z,74.19
2022-10-04T09:31:27.789Z,74.46
2022-10-04T09:34:12.212Z,74.09
2022-10-04T09:37:00.580Z,74.77
2022-10-04T09:39:58.976Z,73.67
2022-10-04T09:42:39.343Z,72.01
2022-10-04T09:45:25.188Z,72.49
2022-10-04T09:48:04.014Z,74.01
2022-10-04T09:51:05.564Z,72.04
2022-10-04T09:53:52.859Z,73.03
2022-10-04T09:56:34.280Z,72.47
2022-10-04T09:59:37.590Z,72.94
2022-10-04T10:02:38.730Z,72.25
2022-10-04T10:05:23.776Z,72.79
2022-10-04T10:07:53.867Z,72.65
2022-10-04T10:10:45.315Z,71.90
2022-10-04T10:13:40.639Z,71.26
2022-10-04T10:16:21.270Z,70.92
2022-10-04T10:18:59.066Z,72.00
2022-10-04T10:21:46.200Z,68.83
2022-10-04T10:24:31.483Z,69.33
2022-10-04T10:27:07.803Z,69.74
2022-10-04T10:30:05.208Z,69.10
2022-10-04T10:33:04.246Z,70.94
2022-10-04T10:35:43.634Z,70.45
2022-10-04T10:38:28.169Z,69.83
2022-10-04T10:41:10.169Z,69.11
2022-10-04T10:44:02.376Z,67.82
2022-10-04T10:46:43.972Z,65.97
2022-10-04T10:49:24.222Z,67.37
2022-10-04T10:52:20.160Z,66.73
2022-10-04T10:55:07.842Z,67.16
2022-10-04T10:57:53.963Z,64.39
2022-10-04T11:00:22.599Z,64.61
2022-10-04T11:03:32.266Z,66.19
2022-10-04T11:06:15.822Z,65.54
2022-10-04T11:09:15.697Z,66.28
2022-10-04T11:12:05.061Z,65.40
2022-10-04T11:14:51.590Z,66.16
2022-10-04T11:17:25.682Z,64.77
2022-10-04T11:20:24.819Z,63.93
2022-10-04T11:23:15.820Z,63.36
2022-10-04T11:25:57.498Z,63.21
2022-10-04T11:28:33.069Z,66.37
2022-10-04T11:31:30.268Z,65.01
2022-10-04T11:34:18.482Z,65.58
2022-10-04T11:36:55.094Z,65.03
2022-10-04T11:39:55.206Z,65.80
2022-10-04T11:42:30.306Z,66.05
2022-10-04T11:45:20.759Z,64.94
2022-10-04T11:47:59.850Z,66.82
2022-10-04T11:50:51.310Z,66.99
2022-10-04T11:53:42.670Z,66.85
2022-10-04T11:56:31.472Z,68.16
2022-10-04T11:59:06.015Z,68.41
2022-10-04T12:01:43.902Z,69.11
2022-10-04T12:04:32.113Z,68.78
2022-10-04T12:07:06.278Z,69.66
2022-10-04T12:09:34.952Z,68.18
2022-10-04T12:12:39.027Z,68.18
2022-10-04T12:15:33.017Z,68.85
2022-10-04T12:18:06.425Z,68.71
2022-10-04T12:20:43.164Z,66.17
2022-10-04T12:23:29.573Z,68.92
2022-10-04T12:26:18.389Z,69.71
2022-10-04T12:28:56.256Z,69.47
2022-10-04T12:31:25.478Z,69.58
2022-10-04T12:33:55.002Z,68.99
2022-10-04T12:36:31.025Z,68.60
2022-10-04T12:39:13.459Z,68.28
2022-10-04T12:41:44.841Z,68.61
2022-10-04T12:44:18.047Z,67.04
2022-10-04T12:46:51.549Z,68.83
2022-10-04T12:49:21.434Z,69.76
2022-10-04T12:51:50.920Z,70.02
2022-10-04T12:54:22.377Z,68.59
2022-10-04T12:56:50.918Z,68.77
2022-10-04T12:59:23.247Z,69.47
2022-10-04T13:01:53.192Z,70.20
2022-10-04T13:04:26.236Z,66.94
2022-10-04T13:06:55.977Z,68.79
2022-10-04T13:09:26.549Z,69.89
2022-10-04T13:11:58.864Z,70.21
2022-10-04T13:14:32.667Z,69.52
2022-10-04T13:19:53.101Z,70.09
2022-10-04T13:22:51.346Z,66.13
2022-10-04T13:25:28.395Z,68.85
2022-10-04T13:27:58.381Z,68.44
2022-10-04T13:30:28.116Z,69.45
2022-10-04T13:32:57.881Z,65.44
2022-10-04T13:35:26.280Z,65.63
2022-10-04T13:37:59.820Z,68.12
2022-10-04T13:40:32.515Z,68.83
2022-10-04T13:43:14.913Z,69.89
2022-10-04T13:45:48.059Z,69.71
2022-10-04T13:48:26.034Z,69.19
2022-10-04T13:51:03.575Z,70.60
2022-10-04T13:53:53.997Z,70.22
2022-10-04T13:56:40.306Z,70.15
2022-10-04T13:59:10.538Z,69.86
2022-10-04T14:02:12.560Z,69.35
2022-10-04T14:04:48.149Z,68.72
2022-10-04T14:07:37.150Z,68.30
2022-10-04T14:10:11.839Z,68.88
2022-10-04T14:12:54.954Z,67.71
2022-10-04T14:15:26.194Z,69.39
2022-10-04T14:20:44.324Z,69.58
2022-10-04T14:23:22.209Z,69.97
2022-10-04T14:26:04.533Z,69.93
2022-10-04T14:28:50.482Z,69.38
2022-10-04T14:31:23.449Z,68.19
2022-10-04T14:33:55.697Z,69.14
2022-10-04T14:36:30.233Z,68.66
2022-10-04T14:39:09.037Z,68.18
2022-10-04T14:41:41.458Z,68.47
2022-10-04T14:44:29.952Z,67.32
2022-10-04T14:47:01.797Z,68.56
2022-10-04T14:49:37.630Z,69.17
2022-10-04T14:52:09.816Z,69.99
2022-10-04T14:54:40.336Z,69.22
2022-10-04T14:57:08.816Z,68.67
2022-10-04T14:59:43.131Z,69.32
2022-10-04T15:02:13.731Z,67.87
2022-10-04T15:04:56.322Z,68.37
2022-10-04T15:07:30.067Z,68.35
2022-10-04T15:09:58.365Z,69.67
2022-10-04T15:15:47.537Z,66.60
2022-10-04T15:18:23.359Z,68.75
2022-10-04T15:20:51.856Z,69.13
2022-10-04T15:23:28.194Z,69.25
2022-10-04T15:25:56.239Z,66.95
2022-10-04T15:28:38.723Z,67.17
2022-10-04T15:31:07.408Z,69.23
2022-10-04T15:33:36.843Z,68.64
2022-10-04T15:36:23.112Z,69.71
2022-10-04T15:38:57.128Z,69.27
2022-10-04T15:41:27.270Z,69.92
2022-10-04T15:44:11.838Z,68.57
2022-10-04T15:46:41.390Z,69.40
2022-10-04T15:49:12.896Z,70.11
2022-10-04T15:51:44.264Z,70.31
2022-10-04T15:54:17.423Z,70.71
2022-10-04T15:56:47.824Z,70.51
2022-10-04T15:59:22.737Z,70.80
2022-10-04T16:01:55.123Z,70.52
2022-10-04T16:04:49.704Z,70.61
2022-10-04T16:07:40.094Z,70.60
2022-10-04T16:10:18.652Z,70.91
2022-10-04T16:13:14.167Z,70.67
2022-10-04T16:15:41.799Z,70.91
2022-10-04T16:18:35.119Z,71.44
2022-10-04T16:21:07.199Z,71.37
2022-10-04T16:23:35.523Z,70.92
2022-10-04T16:26:05.501Z,71.44
2022-10-04T16:28:44.566Z,71.86
2022-10-04T16:31:29.769Z,71.61
2022-10-04T16:33:58.951Z,72.03
2022-10-04T16:36:26.806Z,71.81
2022-10-04T16:39:12.589Z,71.83
2022-10-04T16:41:44.292Z,71.70
2022-10-04T16:44:13.632Z,72.05
2022-10-04T16:46:45.016Z,72.15
2022-10-04T16:49:17.881Z,72.26
2022-10-04T16:51:57.809Z,72.14
2022-10-04T16:54:37.285Z,72.35
2022-10-04T16:57:14.086Z,72.60
2022-10-04T16:59:45.390Z,72.46
2022-10-04T17:02:18.095Z,72.95
2022-10-04T17:04:56.202Z,73.18
2022-10-04T17:07:26.230Z,73.32
2022-10-04T17:09:55.846Z,73.08
2022-10-04T17:12:25.878Z,73.10
2022-10-04T17:15:12.292Z,73.21
2022-10-04T17:17:44.200Z,73.60
2022-10-04T17:20:13.925Z,73.63
2022-10-04T17:22:44.171Z,73.73
2022-10-04T17:25:18.164Z,73.81
2022-10-04T17:27:49.101Z,73.76
2022-10-04T17:30:18.141Z,74.18
2022-10-04T17:32:56.007Z,74.14
2022-10-04T17:35:38.736Z,74.19
2022-10-04T17:38:07.589Z,74.22
2022-10-04T17:40:38.511Z,74.23
2022-10-04T17:43:08.516Z,74.63
2022-10-04T17:45:44.512Z,74.22
2022-10-04T17:48:29.685Z,74.37
2022-10-04T17:51:15.554Z,74.39
2022-10-04T17:54:00.942Z,74.25
2022-10-04T17:56:29.666Z,74.52
2022-10-04T17:58:59.024Z,74.41
2022-10-04T18:01:27.725Z,74.59
2022-10-04T18:03:57.568Z,74.54
2022-10-04T18:06:30.129Z,74.66
2022-10-04T18:08:58.747Z,74.48
2022-10-04T18:11:27.951Z,74.53
2022-10-04T18:13:58.786Z,74.52
2022-10-04T18:16:28.056Z,74.62
2022-10-04T18:18:55.701Z,74.25
2022-10-04T18:21:27.257Z,74.41
2022-10-04T18:23:56.102Z,74.56
2022-10-04T18:26:24.023Z,74.89
2022-10-04T18:28:53.837Z,74.73
2022-10-04T18:31:30.076Z,74.93
2022-10-04T18:33:57.996Z,74.77
2022-10-04T18:36:29.571Z,75.01
2022-10-04T18:39:03.443Z,75.05
2022-10-04T18:41:44.797Z,75.16
2022-10-04T18:44:14.292Z,74.97
2022-10-04T18:46:46.557Z,75.04
2022-10-04T18:49:15.521Z,75.09
2022-10-04T18:51:45.054Z,75.13
2022-10-04T18:54:14.848Z,75.20
2022-10-04T18:56:46.715Z,75.01
2022-10-04T18:59:32.969Z,75.33
2022-10-04T19:02:06.511Z,74.93
2022-10-04T19:04:48.509Z,75.20
2022-10-04T19:07:16.801Z,75.27
2022-10-04T19:09:52.677Z,75.34
2022-10-04T19:12:21.275Z,75.48
2022-10-04T19:14:49.795Z,75.33
2022-10-04T19:17:19.926Z,75.30
2022-10-04T19:19:49.248Z,75.18
2022-10-04T19:22:18.568Z,75.57
2022-10-04T19:24:52.053Z,75.41
2022-10-04T19:27:22.598Z,75.57
2022-10-04T19:29:54.408Z,75.56
2022-10-04T19:32:25.913Z,75.53
2022-10-04T19:34:54.736Z,75.42
2022-10-04T19:37:23.106Z,75.60
2022-10-04T19:39:51.947Z,75.52
2022-10-04T19:42:19.578Z,75.70
2022-10-04T19:44:52.989Z,75.73
2022-10-04T19:47:31.083Z,75.33
2022-10-04T19:49:58.953Z,75.62
2022-10-04T19:52:28.815Z,75.85
2022-10-04T19:54:58.522Z,75.84
2022-10-04T19:57:30.647Z,75.82
2022-10-04T19:59:58.133Z,75.91
2022-10-04T20:02:25.647Z,75.81
2022-10-04T20:04:54.599Z,75.88
2022-10-04T20:07:23.591Z,75.64
2022-10-04T20:09:52.390Z,75.84
2022-10-04T20:12:30.408Z,75.97
2022-10-04T20:15:16.561Z,75.86
2022-10-04T20:17:44.534Z,75.77
2022-10-04T20:20:15.976Z,75.88
2022-10-04T20:22:58.546Z,76.03
2022-10-04T20:25:50.560Z,76.14
2022-10-04T20:28:33.736Z,75.94
2022-10-04T20:31:01.422Z,76.05
2022-10-04T20:33:47.384Z,75.86
2022-10-04T20:36:29.705Z,76.14
2022-10-04T20:39:00.486Z,75.79
2022-10-04T20:42:04.482Z,75.85
2022-10-04T20:44:42.917Z,75.98
2022-10-04T20:47:17.205Z,76.11
2022-10-04T20:49:44.966Z,75.92
2022-10-04T20:52:13.318Z,76.05
2022-10-04T20:54:42.929Z,75.99
2022-10-04T20:57:12.758Z,76.13
2022-10-04T20:59:40.198Z,76.06
2022-10-04T21:02:12.275Z,75.79
2022-10-04T21:04:43.474Z,75.92
2022-10-04T21:07:12.540Z,75.89
2022-10-04T21:09:40.822Z,75.90
2022-10-04T21:12:27.501Z,76.25
2022-10-04T21:15:02.173Z,76.21
2022-10-04T21:17:38.630Z,76.30
2022-10-04T21:20:06.901Z,75.95
2022-10-04T21:22:35.368Z,76.01
2022-10-04T21:25:03.663Z,76.02
2022-10-04T21:27:33.103Z,76.20
2022-10-04T21:30:00.777Z,76.09
2022-10-04T21:32:28.669Z,76.26
2022-10-04T21:34:56.132Z,76.20
2022-10-04T21:37:23.609Z,75.93
2022-10-04T21:39:51.045Z,76.18
2022-10-04T21:42:18.425Z,76.19
2022-10-04T21:44:47.311Z,76.29
2022-10-04T21:47:14.772Z,76.49
2022-10-04T21:49:42.282Z,76.40
2022-10-04T21:52:09.733Z,76.07
2022-10-04T21:54:37.189Z,76.03
2022-10-04T21:57:04.689Z,76.30
2022-10-04T21:59:32.163Z,76.38
2022-10-04T22:02:01.074Z,76.42
2022-10-04T22:04:28.617Z,76.16
2022-10-04T22:06:56.060Z,76.16
2022-10-04T22:09:23.518Z,76.27
2022-10-04T22:11:50.949Z,76.25
2022-10-04T22:14:18.398Z,76.57
2022-10-04T22:16:46.233Z,76.36
2022-10-04T22:19:15.372Z,76.27
2022-10-04T22:21:42.789Z,75.96
2022-10-04T22:24:11.347Z,76.47
2022-10-04T22:26:38.857Z,76.12
2022-10-04T22:29:12.849Z,76.23
2022-10-04T22:31:43.997Z,76.31
2022-10-04T22:34:15.047Z,76.46
2022-10-04T22:36:42.672Z,76.43
2022-10-04T22:39:11.833Z,76.54
2022-10-04T22:41:39.674Z,76.45
2022-10-04T22:44:08.664Z,76.64
2022-10-04T22:46:39.305Z,76.18
2022-10-04T22:49:09.332Z,76.45
2022-10-04T22:51:38.453Z,76.54
2022-10-04T22:54:09.644Z,76.67
2022-10-04T22:56:37.041Z,76.29
2022-10-04T22:59:04.460Z,76.61
2022-10-04T23:01:32.098Z,76.67
2022-10-04T23:03:59.641Z,76.60
2022-10-04T23:06:27.101Z,77.03
2022-10-04T23:08:56.047Z,76.78
2022-10-04T23:11:23.543Z,76.59
2022-10-04T23:13:51.025Z,76.61
2022-10-04T23:16:23.293Z,77.11
2022-10-04T23:18:50.857Z,77.61
2022-10-04T23:21:20.800Z,77.09
2022-10-04T23:23:48.430Z,76.86
2022-10-04T23:26:18.764Z,76.81
2022-10-04T23:28:46.322Z,76.86
2022-10-04T23:31:15.308Z,77.02
2022-10-04T23:33:42.677Z,77.15
2022-10-04T23:36:11.026Z,76.93
2022-10-04T23:38:38.504Z,76.68
2022-10-04T23:41:07.213Z,77.09
2022-10-04T23:43:36.039Z,77.17
2022-10-04T23:46:03.639Z,77.11
2022-10-04T23:48:32.191Z,77.48
2022-10-04T23:51:00.890Z,77.40
2022-10-04T23:53:28.914Z,77.42
2022-10-04T23:55:56.464Z,77.39
2022-10-04T23:58:24.324Z,77.33
